createdAt,value
2023-06-07T00:01:44.060Z,11.75
2023-06-07T00:04:15.794Z,12.18
2023-06-07T00:06:45.554Z,11.98
2023-06-07T00:09:15.254Z,13.73
2023-06-07T00:11:45.026Z,13.80
2023-06-07T00:14:16.129Z,13.85
2023-06-07T00:16:51.545Z,11.20
2023-06-07T00:19:22.444Z,12.38
2023-06-07T00:21:52.875Z,14.20
2023-06-07T00:24:22.706Z,15.15
2023-06-07T00:26:52.491Z,15.30
2023-06-07T00:29:22.266Z,11.82
2023-06-07T00:31:54.889Z,12.52
2023-06-07T00:34:24.596Z,9.55
2023-06-07T00:36:54.370Z,12.35
2023-06-07T00:39:26.043Z,13.80
2023-06-07T00:41:56.198Z,12.05
2023-06-07T00:44:26.060Z,10.55
2023-06-07T00:46:59.106Z,12.25
2023-06-07T00:49:28.856Z,11.45
2023-06-07T00:51:58.618Z,11.45
2023-06-07T00:54:28.432Z,11.38
2023-06-07T00:56:58.176Z,12.88
2023-06-07T00:59:27.863Z,15.35
2023-06-07T01:02:02.755Z,11.25
2023-06-07T01:04:32.646Z,11.68
2023-06-07T01:07:03.835Z,11.93
2023-06-07T01:09:34.157Z,10.85
2023-06-07T01:12:04.324Z,12.70
2023-06-07T01:14:35.935Z,11.70
2023-06-07T01:17:08.891Z,14.88
2023-06-07T01:19:40.598Z,14.43
2023-06-07T01:22:10.828Z,13.15
2023-06-07T01:24:44.406Z,12.60
2023-06-07T01:27:14.231Z,13.27
2023-06-07T01:29:44.378Z,13.13
2023-06-07T01:32:15.292Z,15.00
2023-06-07T01:34:45.497Z,12.20
2023-06-07T01:37:15.237Z,12.48
2023-06-07T01:39:47.778Z,11.73
2023-06-07T01:42:18.859Z,12.00
2023-06-07T01:44:52.197Z,11.90
2023-06-07T01:47:23.161Z,13.73
2023-06-07T01:49:52.910Z,13.27
2023-06-07T01:52:22.670Z,17.20
2023-06-07T01:54:55.138Z,14.80
2023-06-07T01:57:29.538Z,17.48
2023-06-07T02:00:07.213Z,15.18
2023-06-07T02:02:57.678Z,13.77
2023-06-07T02:05:30.681Z,14.30
2023-06-07T02:08:00.799Z,12.25
2023-06-07T02:10:33.864Z,14.00
2023-06-07T02:13:03.757Z,11.70
2023-06-07T02:15:33.488Z,16.55
2023-06-07T02:18:04.140Z,13.15
2023-06-07T02:20:35.975Z,11.52
2023-06-07T02:23:05.843Z,14.25
2023-06-07T02:25:38.394Z,15.00
2023-06-07T02:28:08.168Z,15.52
2023-06-07T02:30:37.893Z,12.50
2023-06-07T02:33:08.354Z,14.38
2023-06-07T02:35:38.102Z,15.02
2023-06-07T02:38:08.050Z,13.27
2023-06-07T02:40:43.538Z,13.73
2023-06-07T02:43:13.343Z,12.45
2023-06-07T02:45:43.043Z,15.93
2023-06-07T02:48:14.200Z,17.63
2023-06-07T02:50:43.993Z,12.77
2023-06-07T02:53:13.737Z,15.18
2023-06-07T02:55:46.167Z,11.63
2023-06-07T02:58:16.919Z,14.73
2023-06-07T03:00:51.379Z,12.55
2023-06-07T03:03:22.638Z,15.98
2023-06-07T03:06:01.211Z,13.43
2023-06-07T03:08:35.697Z,16.63
2023-06-07T03:11:08.684Z,15.00
2023-06-07T03:13:43.527Z,15.98
2023-06-07T03:16:16.582Z,12.88
2023-06-07T03:18:59.753Z,14.65
2023-06-07T03:21:31.141Z,14.57
2023-06-07T03:24:05.980Z,14.75
2023-06-07T03:26:39.039Z,13.63
2023-06-07T03:29:08.839Z,16.02
2023-06-07T03:31:40.981Z,11.68
2023-06-07T03:34:14.715Z,12.07
2023-06-07T03:36:46.063Z,12.43
2023-06-07T03:39:18.992Z,12.52
2023-06-07T03:41:51.620Z,12.00
2023-06-07T03:44:26.147Z,12.82
2023-06-07T03:46:56.017Z,15.70
2023-06-07T03:49:25.775Z,13.70
2023-06-07T03:51:55.513Z,13.43
2023-06-07T03:54:25.527Z,15.63
2023-06-07T03:56:59.108Z,14.50
2023-06-07T03:59:29.383Z,13.70
2023-06-07T04:01:59.938Z,14.57
2023-06-07T04:04:30.429Z,17.80
2023-06-07T04:07:02.233Z,13.95
2023-06-07T04:09:32.704Z,14.10
2023-06-07T04:12:06.813Z,13.27
2023-06-07T04:14:36.987Z,12.15
2023-06-07T04:17:06.874Z,16.17
2023-06-07T04:19:42.950Z,15.13
2023-06-07T04:22:18.060Z,13.05
2023-06-07T04:24:47.960Z,13.20
2023-06-07T04:27:20.309Z,15.18
2023-06-07T04:29:55.123Z,13.80
2023-06-07T04:32:26.583Z,16.35
2023-06-07T04:34:58.897Z,13.32
2023-06-07T04:37:28.852Z,14.23
2023-06-07T04:39:59.472Z,14.60
2023-06-07T04:42:31.784Z,13.13
2023-06-07T04:45:04.503Z,14.73
2023-06-07T04:47:34.948Z,19.23
2023-06-07T04:50:05.242Z,13.82
2023-06-07T04:52:40.234Z,15.30
2023-06-07T04:55:10.883Z,12.23
2023-06-07T04:57:44.333Z,18.80
2023-06-07T05:00:15.870Z,13.43
2023-06-07T05:02:48.986Z,11.98
2023-06-07T05:05:21.720Z,12.82
2023-06-07T05:07:54.526Z,15.38
2023-06-07T05:10:24.857Z,16.65
2023-06-07T05:12:57.461Z,12.25
2023-06-07T05:15:28.434Z,13.82
2023-06-07T05:17:59.531Z,13.43
2023-06-07T05:20:29.623Z,13.35
2023-06-07T05:23:02.528Z,19.67
2023-06-07T05:25:32.646Z,16.25
2023-06-07T05:28:12.885Z,15.07
2023-06-07T05:30:47.617Z,14.85
2023-06-07T05:33:17.464Z,16.27
2023-06-07T05:35:48.797Z,14.43
2023-06-07T05:38:20.843Z,16.65
2023-06-07T05:40:51.286Z,15.15
2023-06-07T05:43:24.132Z,14.15
2023-06-07T05:45:53.843Z,17.20
2023-06-07T05:48:23.595Z,15.50
2023-06-07T05:50:53.607Z,15.35
2023-06-07T05:53:23.469Z,15.88
2023-06-07T05:55:54.622Z,16.27
2023-06-07T05:58:28.030Z,15.50
2023-06-07T06:00:58.055Z,18.88
2023-06-07T06:03:27.828Z,14.63
2023-06-07T06:05:58.038Z,14.88
2023-06-07T06:08:27.748Z,17.05
2023-06-07T06:10:57.482Z,16.70
2023-06-07T06:13:31.927Z,15.65
2023-06-07T06:16:01.599Z,18.75
2023-06-07T06:18:31.327Z,17.02
2023-06-07T06:21:01.901Z,15.60
2023-06-07T06:23:31.673Z,17.88
2023-06-07T06:26:01.442Z,16.15
2023-06-07T06:28:33.816Z,18.00
2023-06-07T06:31:04.688Z,18.75
2023-06-07T06:33:34.491Z,16.60
2023-06-07T06:36:04.245Z,18.35
2023-06-07T06:38:34.059Z,15.43
2023-06-07T06:41:04.514Z,16.17
2023-06-07T06:43:38.779Z,16.95
2023-06-07T06:46:09.142Z,15.27
2023-06-07T06:48:39.862Z,17.67
2023-06-07T06:51:09.630Z,20.05
2023-06-07T06:53:39.500Z,17.50
2023-06-07T06:56:09.514Z,16.75
2023-06-07T06:58:42.364Z,15.60
2023-06-07T07:01:12.082Z,17.90
2023-06-07T07:03:41.883Z,13.80
2023-06-07T07:06:12.082Z,18.48
2023-06-07T07:08:42.968Z,17.95
2023-06-07T07:11:12.690Z,21.25
2023-06-07T07:13:45.001Z,16.23
2023-06-07T07:16:14.776Z,15.73
2023-06-07T07:18:44.503Z,19.35
2023-06-07T07:21:14.268Z,19.23
2023-06-07T07:23:44.843Z,16.48
2023-06-07T07:26:14.602Z,20.23
2023-06-07T07:28:46.997Z,16.50
2023-06-07T07:31:17.020Z,19.00
2023-06-07T07:33:46.793Z,19.67
2023-06-07T07:36:16.705Z,20.92
2023-06-07T07:38:47.109Z,20.80
2023-06-07T07:41:18.002Z,17.20
2023-06-07T07:43:50.397Z,20.63
2023-06-07T07:46:20.456Z,15.27
2023-06-07T07:48:50.285Z,19.77
2023-06-07T07:51:20.278Z,19.23
2023-06-07T07:53:53.741Z,19.40
2023-06-07T07:56:23.544Z,18.73
2023-06-07T07:58:56.034Z,18.33
2023-06-07T08:01:25.940Z,18.38
2023-06-07T08:03:55.803Z,22.10
2023-06-07T08:06:25.658Z,17.00
2023-06-07T08:08:55.505Z,17.77
2023-06-07T08:11:25.220Z,14.93
2023-06-07T08:13:57.578Z,16.33
2023-06-07T08:16:27.546Z,17.27
2023-06-07T08:18:59.354Z,15.00
2023-06-07T08:21:29.303Z,16.08
2023-06-07T08:23:59.451Z,17.52
2023-06-07T08:26:29.410Z,17.17
2023-06-07T08:29:01.732Z,16.50
2023-06-07T08:31:33.089Z,14.85
2023-06-07T08:34:02.777Z,15.82
2023-06-07T08:36:32.914Z,14.88
2023-06-07T08:39:02.749Z,14.27
2023-06-07T08:41:32.574Z,14.98
2023-06-07T08:44:04.896Z,15.18
2023-06-07T08:46:35.552Z,15.32
2023-06-07T08:49:06.695Z,15.70
2023-06-07T08:51:39.723Z,13.50
2023-06-07T08:54:10.753Z,15.35
2023-06-07T08:56:41.019Z,11.93
2023-06-07T08:59:14.125Z,14.77
2023-06-07T09:01:43.934Z,16.92
2023-06-07T09:04:14.016Z,13.60
2023-06-07T09:06:44.521Z,12.52
2023-06-07T09:09:14.361Z,12.25
2023-06-07T09:11:44.112Z,16.15
2023-06-07T09:14:16.672Z,13.48
2023-06-07T09:16:56.541Z,16.30
2023-06-07T09:19:36.518Z,12.95
2023-06-07T09:22:06.829Z,13.15
2023-06-07T09:24:37.153Z,12.98
2023-06-07T09:27:07.516Z,15.30
2023-06-07T09:29:44.763Z,14.43
2023-06-07T09:32:20.946Z,14.00
2023-06-07T09:34:52.610Z,14.70
2023-06-07T09:37:22.970Z,11.93
2023-06-07T09:39:54.977Z,12.63
2023-06-07T09:42:24.699Z,14.65
2023-06-07T09:44:57.203Z,13.95
2023-06-07T09:47:27.278Z,12.10
2023-06-07T09:50:08.989Z,13.63
2023-06-07T09:52:38.898Z,13.82
2023-06-07T09:55:10.145Z,12.88
2023-06-07T09:57:41.014Z,11.98
2023-06-07T10:00:16.192Z,13.35
2023-06-07T10:02:48.088Z,13.15
2023-06-07T10:05:22.734Z,11.80
2023-06-07T10:07:53.257Z,13.23
2023-06-07T10:10:25.952Z,13.80
2023-06-07T10:12:55.972Z,24.83
2023-06-07T10:15:30.625Z,12.40
2023-06-07T10:18:04.080Z,16.48
2023-06-07T10:20:35.914Z,12.80
2023-06-07T10:23:07.549Z,16.60
2023-06-07T10:25:40.596Z,19.63
2023-06-07T10:28:15.365Z,10.85
2023-06-07T10:30:50.327Z,9.50
2023-06-07T10:33:20.796Z,10.57
2023-06-07T10:35:51.112Z,10.15
2023-06-07T10:38:20.827Z,11.98
2023-06-07T10:40:52.224Z,9.18
2023-06-07T10:43:23.528Z,10.23
2023-06-07T10:46:18.047Z,8.20
2023-06-07T10:48:49.120Z,10.25
2023-06-07T10:51:20.280Z,9.48
2023-06-07T10:53:57.105Z,9.85
2023-06-07T10:56:31.228Z,8.52
2023-06-07T10:59:02.131Z,12.63
2023-06-07T11:01:34.771Z,10.63
2023-06-07T11:04:04.597Z,10.00
2023-06-07T11:06:35.287Z,9.85
2023-06-07T11:09:19.768Z,8.77
2023-06-07T11:11:49.617Z,11.63
2023-06-07T11:14:19.355Z,10.63
2023-06-07T11:16:51.876Z,9.10
2023-06-07T11:19:22.081Z,10.60
2023-06-07T11:22:06.023Z,8.40
2023-06-07T11:24:37.457Z,10.60
2023-06-07T11:27:12.837Z,10.73
2023-06-07T11:29:44.406Z,8.10
2023-06-07T11:32:17.320Z,9.05
2023-06-07T11:34:59.136Z,9.23
2023-06-07T11:37:28.880Z,9.20
2023-06-07T11:40:02.725Z,8.60
2023-06-07T11:42:33.970Z,7.35
2023-06-07T11:45:03.853Z,8.32
2023-06-07T11:47:36.252Z,7.53
2023-06-07T11:50:06.565Z,6.60
2023-06-07T11:52:36.565Z,8.60
2023-06-07T11:55:06.356Z,7.65
2023-06-07T11:57:38.651Z,8.57
2023-06-07T12:00:14.475Z,8.43
2023-06-07T12:02:47.586Z,7.28
2023-06-07T12:05:17.951Z,9.75
2023-06-07T12:07:47.895Z,8.90
2023-06-07T12:10:26.722Z,8.82
2023-06-07T12:15:25.939Z,6.18
2023-06-07T12:17:58.569Z,5.57
2023-06-07T12:20:30.219Z,5.63
2023-06-07T12:23:06.319Z,5.40
2023-06-07T12:25:36.689Z,5.68
2023-06-07T12:28:13.487Z,8.40
2023-06-07T12:30:44.505Z,6.22
2023-06-07T12:33:19.616Z,5.65
2023-06-07T12:35:52.196Z,6.72
2023-06-07T12:38:23.182Z,6.95
2023-06-07T12:40:52.991Z,6.22
2023-06-07T12:43:22.857Z,6.03
2023-06-07T12:45:52.851Z,6.05
2023-06-07T12:48:25.167Z,5.68
2023-06-07T12:50:55.523Z,4.57
2023-06-07T12:53:25.257Z,6.97
2023-06-07T12:55:55.025Z,10.90
2023-06-07T12:58:24.744Z,6.13
2023-06-07T13:00:54.549Z,5.05
2023-06-07T13:03:27.617Z,4.80
2023-06-07T13:05:57.941Z,6.50
2023-06-07T13:08:27.896Z,4.53
2023-06-07T13:10:57.728Z,7.28
2023-06-07T13:13:27.441Z,7.15
2023-06-07T13:16:00.392Z,4.75
2023-06-07T13:18:32.961Z,5.28
2023-06-07T13:21:05.066Z,4.22
2023-06-07T13:23:37.264Z,6.57
2023-06-07T13:26:07.258Z,7.15
2023-06-07T13:28:37.018Z,5.00
2023-06-07T13:31:07.084Z,7.95
2023-06-07T13:33:39.561Z,7.90
2023-06-07T13:36:09.542Z,5.55
2023-06-07T13:38:40.296Z,6.43
2023-06-07T13:41:10.270Z,5.93
2023-06-07T13:46:12.903Z,5.65
2023-06-07T13:48:45.377Z,5.25
2023-06-07T13:51:15.953Z,6.78
2023-06-07T13:53:46.607Z,7.47
2023-06-07T13:56:16.386Z,5.30
2023-06-07T13:58:46.588Z,7.50
2023-06-07T14:01:18.366Z,5.32
2023-06-07T14:03:51.147Z,5.57
2023-06-07T14:06:23.773Z,5.40
2023-06-07T14:08:53.961Z,7.57
2023-06-07T14:11:25.888Z,7.55
2023-06-07T14:13:55.621Z,8.30
2023-06-07T14:16:27.228Z,6.30
2023-06-07T14:19:01.571Z,7.13
2023-06-07T14:21:31.325Z,6.45
2023-06-07T14:24:01.198Z,9.05
2023-06-07T14:26:31.109Z,6.97
2023-06-07T14:29:00.954Z,5.88
2023-06-07T14:31:30.912Z,7.03
2023-06-07T14:34:03.240Z,6.95
2023-06-07T14:36:32.958Z,7.68
2023-06-07T14:39:02.760Z,8.20
2023-06-07T14:41:32.479Z,8.45
2023-06-07T14:44:02.584Z,7.88
2023-06-07T14:46:32.296Z,6.88
2023-06-07T14:49:04.684Z,7.90
2023-06-07T14:51:34.388Z,8.43
2023-06-07T14:54:06.095Z,8.68
2023-06-07T14:56:36.404Z,7.00
2023-06-07T14:59:06.196Z,6.78
2023-06-07T15:01:36.104Z,7.85
2023-06-07T15:04:08.731Z,7.00
2023-06-07T15:06:38.877Z,8.10
2023-06-07T15:09:10.336Z,7.07
2023-06-07T15:11:40.126Z,7.20
2023-06-07T15:14:11.255Z,9.98
2023-06-07T15:16:43.252Z,8.20
2023-06-07T15:19:15.791Z,7.75
2023-06-07T15:21:48.495Z,9.85
2023-06-07T15:24:18.422Z,7.90
2023-06-07T15:26:48.398Z,9.30
2023-06-07T15:29:18.238Z,7.53
2023-06-07T15:31:48.161Z,9.95
2023-06-07T15:34:20.757Z,8.07
2023-06-07T15:36:50.863Z,9.18
2023-06-07T15:39:20.646Z,7.80
2023-06-07T15:41:53.206Z,8.95
2023-06-07T15:44:23.359Z,9.32
2023-06-07T15:46:53.532Z,9.52
2023-06-07T15:49:25.997Z,12.18
2023-06-07T15:51:56.393Z,8.02
2023-06-07T15:54:26.498Z,9.20
2023-06-07T15:56:56.344Z,9.75
2023-06-07T15:59:27.176Z,9.77
2023-06-07T16:01:58.902Z,10.32
2023-06-07T16:04:31.409Z,7.78
2023-06-07T16:07:02.224Z,9.10
2023-06-07T16:09:32.022Z,6.65
2023-06-07T16:12:03.427Z,9.57
2023-06-07T16:14:33.256Z,6.18
2023-06-07T16:17:05.976Z,7.60
2023-06-07T16:19:38.491Z,6.15
2023-06-07T16:22:10.310Z,13.57
2023-06-07T16:24:41.709Z,7.38
2023-06-07T16:27:11.860Z,9.40
2023-06-07T16:29:41.672Z,8.80
2023-06-07T16:32:12.028Z,10.50
2023-06-07T16:34:45.250Z,8.90
2023-06-07T16:37:15.111Z,7.55
2023-06-07T16:39:44.990Z,9.02
2023-06-07T16:42:17.260Z,7.90
2023-06-07T16:44:47.751Z,8.70
2023-06-07T16:47:17.773Z,8.25
2023-06-07T16:49:50.219Z,10.70
2023-06-07T16:52:20.031Z,9.00
2023-06-07T16:54:49.832Z,10.32
2023-06-07T16:57:19.630Z,7.15
2023-06-07T16:59:49.443Z,9.65
2023-06-07T17:02:19.306Z,11.55
2023-06-07T17:04:51.722Z,8.88
2023-06-07T17:07:21.618Z,9.48
2023-06-07T17:09:51.444Z,9.75
2023-06-07T17:12:21.314Z,10.27
2023-06-07T17:14:55.668Z,15.88
2023-06-07T17:17:25.479Z,9.35
2023-06-07T17:19:57.839Z,10.27
2023-06-07T17:22:27.940Z,9.85
2023-06-07T17:24:58.509Z,7.35
2023-06-07T17:27:28.268Z,10.65
2023-06-07T17:29:58.023Z,16.42
2023-06-07T17:32:27.753Z,9.73
2023-06-07T17:35:00.201Z,8.13
2023-06-07T17:37:29.933Z,7.88
2023-06-07T17:39:59.658Z,10.75
2023-06-07T17:42:29.337Z,9.40
2023-06-07T17:44:59.238Z,9.00
2023-06-07T17:47:29.249Z,11.57
2023-06-07T17:50:01.632Z,27.98
2023-06-07T17:52:31.411Z,8.75
2023-06-07T17:55:01.186Z,9.88
2023-06-07T17:57:30.999Z,10.65
2023-06-07T18:00:00.770Z,8.30
2023-06-07T18:02:30.704Z,19.20
2023-06-07T18:05:03.070Z,13.50
2023-06-07T18:07:32.809Z,11.88
2023-06-07T18:10:02.706Z,11.30
2023-06-07T18:12:32.641Z,12.70
2023-06-07T18:15:02.400Z,12.75
2023-06-07T18:17:32.259Z,12.82
2023-06-07T18:20:04.990Z,11.80
2023-06-07T18:22:35.234Z,9.43
2023-06-07T18:25:04.953Z,9.50
2023-06-07T18:27:34.756Z,13.38
2023-06-07T18:30:04.859Z,15.48
2023-06-07T18:32:34.797Z,14.63
2023-06-07T18:35:07.941Z,15.07
2023-06-07T18:37:38.020Z,15.27
2023-06-07T18:40:08.716Z,33.95
2023-06-07T18:42:38.751Z,38.10
2023-06-07T18:45:09.804Z,16.92
2023-06-07T18:47:40.048Z,21.20
2023-06-07T18:50:12.866Z,40.63
2023-06-07T18:52:42.758Z,21.88
2023-06-07T18:55:12.798Z,16.25
2023-06-07T18:57:43.051Z,14.75
2023-06-07T19:00:13.264Z,11.95
2023-06-07T19:02:43.202Z,11.40
2023-06-07T19:05:15.854Z,10.30
2023-06-07T19:07:45.699Z,12.35
2023-06-07T19:10:15.476Z,11.82
2023-06-07T19:12:45.256Z,10.85
2023-06-07T19:15:15.200Z,10.35
2023-06-07T19:17:45.131Z,10.75
2023-06-07T19:20:19.005Z,12.82
2023-06-07T19:22:49.409Z,14.63
2023-06-07T19:25:19.402Z,10.80
2023-06-07T19:27:49.173Z,12.50
2023-06-07T19:30:19.054Z,11.93
2023-06-07T19:32:49.489Z,15.05
2023-06-07T19:35:22.010Z,15.05
2023-06-07T19:37:51.816Z,13.60
2023-06-07T19:40:21.844Z,13.35
2023-06-07T19:42:51.631Z,11.90
2023-06-07T19:45:21.509Z,14.57
2023-06-07T19:47:51.325Z,11.30
2023-06-07T19:50:23.782Z,11.85
2023-06-07T19:52:53.527Z,10.55
2023-06-07T19:55:23.488Z,12.13
2023-06-07T19:57:53.652Z,14.00
2023-06-07T20:00:23.748Z,11.43
2023-06-07T20:02:53.600Z,12.45
2023-06-07T20:05:26.025Z,10.73
2023-06-07T20:07:56.729Z,11.18
2023-06-07T20:10:26.552Z,14.05
2023-06-07T20:12:56.374Z,14.50
2023-06-07T20:15:27.659Z,10.48
2023-06-07T20:17:57.465Z,12.02
2023-06-07T20:20:29.904Z,11.38
2023-06-07T20:22:59.656Z,11.52
2023-06-07T20:25:29.402Z,9.65
2023-06-07T20:27:59.242Z,12.23
2023-06-07T20:30:29.041Z,14.43
2023-06-07T20:32:58.876Z,11.88
2023-06-07T20:35:32.775Z,15.25
2023-06-07T20:38:02.616Z,20.52
2023-06-07T20:40:32.343Z,12.15
2023-06-07T20:43:02.674Z,11.88
2023-06-07T20:45:32.424Z,9.68
2023-06-07T20:48:02.211Z,11.55
2023-06-07T20:50:34.588Z,12.93
2023-06-07T20:53:04.308Z,10.75
2023-06-07T20:55:35.710Z,9.00
2023-06-07T20:58:05.476Z,11.73
2023-06-07T21:00:35.464Z,12.55
2023-06-07T21:03:05.403Z,12.15
2023-06-07T21:05:38.013Z,11.05
2023-06-07T21:08:08.069Z,8.95
2023-06-07T21:10:37.775Z,11.10
2023-06-07T21:13:07.508Z,10.40
2023-06-07T21:15:37.268Z,10.93
2023-06-07T21:18:07.417Z,11.63
2023-06-07T21:20:39.800Z,10.82
2023-06-07T21:23:12.181Z,9.38
2023-06-07T21:25:42.867Z,13.95
2023-06-07T21:28:12.620Z,16.02
2023-06-07T21:30:42.509Z,11.00
2023-06-07T21:33:12.278Z,11.93
2023-06-07T21:35:44.631Z,12.45
2023-06-07T21:38:14.397Z,11.73
2023-06-07T21:40:44.135Z,17.90
2023-06-07T21:43:13.873Z,13.32
2023-06-07T21:45:43.608Z,16.70
2023-06-07T21:48:13.490Z,13.10
2023-06-07T21:50:46.065Z,11.57
2023-06-07T21:53:15.809Z,13.38
2023-06-07T21:55:45.772Z,14.43
2023-06-07T21:58:15.525Z,16.02
2023-06-07T22:00:45.347Z,19.65
2023-06-07T22:03:16.013Z,19.80
2023-06-07T22:05:48.352Z,15.77
2023-06-07T22:08:18.048Z,11.75
2023-06-07T22:10:47.944Z,10.20
2023-06-07T22:13:21.842Z,11.45
2023-06-07T22:15:52.685Z,10.75
2023-06-07T22:18:25.123Z,13.65
2023-06-07T22:20:57.743Z,20.20
2023-06-07T22:23:27.561Z,16.23
2023-06-07T22:25:57.425Z,18.67
2023-06-07T22:28:31.007Z,14.95
2023-06-07T22:31:04.051Z,12.00
2023-06-07T22:33:35.515Z,12.82
2023-06-07T22:36:08.475Z,11.90
2023-06-07T22:38:38.198Z,12.35
2023-06-07T22:41:08.359Z,11.05
2023-06-07T22:43:38.078Z,10.65
2023-06-07T22:46:07.841Z,10.18
2023-06-07T22:48:37.973Z,10.25
2023-06-07T22:51:11.001Z,11.38
2023-06-07T22:53:41.999Z,10.57
2023-06-07T22:56:11.850Z,14.20
2023-06-07T22:58:41.974Z,17.48
2023-06-07T23:01:14.264Z,10.30
2023-06-07T23:03:44.231Z,9.75
2023-06-07T23:06:19.112Z,10.27
2023-06-07T23:08:54.451Z,11.80
2023-06-07T23:11:24.507Z,10.15
2023-06-07T23:13:54.299Z,8.13
2023-06-07T23:16:25.255Z,10.18
2023-06-07T23:18:55.546Z,10.05
2023-06-07T23:21:30.524Z,9.85
2023-06-07T23:24:00.393Z,14.93
2023-06-07T23:26:30.160Z,16.92
2023-06-07T23:28:59.920Z,13.85
2023-06-07T23:31:29.691Z,9.77
2023-06-07T23:33:59.437Z,11.00
2023-06-07T23:36:31.756Z,13.20
2023-06-07T23:39:01.453Z,12.95
2023-06-07T23:41:31.208Z,8.77
2023-06-07T23:44:01.050Z,10.73
2023-06-07T23:46:31.865Z,10.25
2023-06-07T23:49:01.745Z,14.70
2023-06-07T23:51:34.034Z,13.73
2023-06-07T23:54:03.728Z,10.20
2023-06-07T23:56:33.446Z,13.45
2023-06-07T23:59:03.211Z,22.23
